地図

経路データ

SID SEASON NUMBER BASIN SUBBASIN NAME ISO_TIME NATURE LAT LON WMO_WIND WMO_PRES WMO_AGENCY TRACK_TYPE DIST2LAND LANDFALL IFLAG USA_AGENCY USA_ATCF_ID USA_LAT USA_LON USA_RECORD USA_STATUS USA_WIND USA_PRES USA_SSHS USA_R34_NE USA_R34_SE USA_R34_SW USA_R34_NW USA_R50_NE USA_R50_SE USA_R50_SW USA_R50_NW USA_R64_NE USA_R64_SE USA_R64_SW USA_R64_NW USA_POCI USA_ROCI USA_RMW USA_EYE TOKYO_LAT TOKYO_LON TOKYO_GRADE TOKYO_WIND TOKYO_PRES TOKYO_R50_DIR TOKYO_R50_LONG TOKYO_R50_SHORT TOKYO_R30_DIR TOKYO_R30_LONG TOKYO_R30_SHORT TOKYO_LAND CMA_LAT CMA_LON CMA_CAT CMA_WIND CMA_PRES HKO_LAT HKO_LON HKO_CAT HKO_WIND HKO_PRES NEWDELHI_LAT NEWDELHI_LON NEWDELHI_GRADE NEWDELHI_WIND NEWDELHI_PRES NEWDELHI_CI NEWDELHI_DP NEWDELHI_POCI REUNION_LAT REUNION_LON REUNION_TYPE REUNION_WIND REUNION_PRES REUNION_TNUM REUNION_CI REUNION_RMW REUNION_R34_NE REUNION_R34_SE REUNION_R34_SW REUNION_R34_NW REUNION_R50_NE REUNION_R50_SE REUNION_R50_SW REUNION_R50_NW REUNION_R64_NE REUNION_R64_SE REUNION_R64_SW REUNION_R64_NW BOM_LAT BOM_LON BOM_TYPE BOM_WIND BOM_PRES BOM_TNUM BOM_CI BOM_RMW BOM_R34_NE BOM_R34_SE BOM_R34_SW BOM_R34_NW BOM_R50_NE BOM_R50_SE BOM_R50_SW BOM_R50_NW BOM_R64_NE BOM_R64_SE BOM_R64_SW BOM_R64_NW BOM_ROCI BOM_POCI BOM_EYE BOM_POS_METHOD BOM_PRES_METHOD NADI_LAT NADI_LON NADI_CAT NADI_WIND NADI_PRES WELLINGTON_LAT WELLINGTON_LON WELLINGTON_WIND WELLINGTON_PRES DS824_LAT DS824_LON DS824_STAGE DS824_WIND DS824_PRES TD9636_LAT TD9636_LON TD9636_STAGE TD9636_WIND TD9636_PRES TD9635_LAT TD9635_LON TD9635_WIND TD9635_PRES TD9635_ROCI NEUMANN_LAT NEUMANN_LON NEUMANN_CLASS NEUMANN_WIND NEUMANN_PRES MLC_LAT MLC_LON MLC_CLASS MLC_WIND MLC_PRES USA_GUST BOM_GUST BOM_GUST_PER REUNION_GUST REUNION_GUST_PER USA_SEAHGT USA_SEARAD_NE USA_SEARAD_SE USA_SEARAD_SW USA_SEARAD_NW STORM_SPEED STORM_DIR
1927314N12068 1927 65 NI AS NOT_NAMED 1927-11-10 00:00:00 TS 11.7000 68.0000 main 743 743 _________O____ -1 11.7000 68.0000 TC 30 2 293
1927314N12068 1927 65 NI AS NOT_NAMED 1927-11-10 03:00:00 TS 11.7267 67.9267 main 752 746 _________PO___ -1 11.7400 67.8900 TC 30 11.7000 68.0000 1 2 305
1927314N12068 1927 65 NI AS NOT_NAMED 1927-11-10 06:00:00 TS 11.8019 67.8531 main 746 746 _________OP___ -1 11.8000 67.8000 TC 30 11.8047 67.9327 1 2 322
1927314N12068 1927 65 NI AS NOT_NAMED 1927-11-10 09:00:00 TS 11.8946 67.7939 main 750 745 _________PP___ -1 11.8925 67.7425 TC 30 11.8975 67.8624 1 2 330
1927314N12068 1927 65 NI AS NOT_NAMED 1927-11-10 12:00:00 TS 11.9833 67.7429 main 754 754 _________OP___ -1 12.0000 67.7000 TC 30 11.9665 67.7858 1 2 323
1927314N12068 1927 65 NI AS NOT_NAMED 1927-11-10 15:00:00 TS 12.0500 67.6750 main 749 749 _________PO___ -1 12.1000 67.6500 TC 30 12.0000 67.7000 1 2 310
1927314N12068 1927 65 NI AS NOT_NAMED 1927-11-10 18:00:00 TS 12.0997 67.6033 main 759 759 _________OP___ -1 12.2000 67.6000 TC 30 11.9994 67.6066 1 2 295
1927314N12068 1927 65 NI AS NOT_NAMED 1927-11-10 21:00:00 TS 12.1150 67.5341 main 769 764 _________PP___ -1 12.2100 67.5425 TC 30 12.0200 67.5256 1 2 325
1927314N12068 1927 65 NI AS NOT_NAMED 1927-11-11 00:00:00 TS 12.2653 67.4909 main 759 741 _________OP___ -1 12.4000 67.5000 TC 30 12.1306 67.4819 1 6 355
1927314N12068 1927 65 NI AS NOT_NAMED 1927-11-11 03:00:00 TS 12.7087 67.4702 main 741 715 _________PO___ -1 13.0175 67.4405 TC 31 12.4000 67.5000 1 11 1
1927314N12068 1927 65 NI AS NOT_NAMED 1927-11-11 06:00:00 TS 13.3770 67.5268 main 711 662 _________OP___ -1 13.8000 67.5000 TC 32 12.9540 67.5537 1 14 10
1927314N12068 1927 65 NI AS NOT_NAMED 1927-11-11 09:00:00 TS 14.0772 67.7263 main 658 602 _________PP___ -1 14.4950 67.7747 TC 33 13.6594 67.6779 1 15 20
1927314N12068 1927 65 NI AS NOT_NAMED 1927-11-11 12:00:00 TS 14.7551 68.0441 main 598 541 _________OP___ -1 15.1000 68.2000 TC 34 14.4101 67.8882 1 14 29
1927314N12068 1927 65 NI AS NOT_NAMED 1927-11-11 15:00:00 TS 15.3187 68.4352 main 541 478 _________PO___ -1 15.5375 68.6703 TC 36 15.1000 68.2000 2 13 40
1927314N12068 1927 65 NI AS NOT_NAMED 1927-11-11 18:00:00 TS 15.7376 68.9083 main 478 418 _________OP___ -1 15.9000 69.2000 TC 39 15.5752 68.6166 2 13 50
1927314N12068 1927 65 NI AS NOT_NAMED 1927-11-11 21:00:00 TS 16.1339 69.4367 main 418 351 _________PP___ -1 16.2924 69.7427 TC 42 15.9753 69.1307 2 13 53
1927314N12068 1927 65 NI AS NOT_NAMED 1927-11-12 00:00:00 TS 16.5188 70.0022 main 351 287 _________OP___ -1 16.7000 70.3000 TC 45 16.3376 69.7044 2 13 54
1927314N12068 1927 65 NI AS NOT_NAMED 1927-11-12 03:00:00 TS 16.9249 70.5714 main 276 214 _________PO___ -1 17.1498 70.8427 TC 41 16.7000 70.3000 3 14 52
1927314N12068 1927 65 NI AS NOT_NAMED 1927-11-12 06:00:00 TS 17.3687 71.1203 main 210 134 _________OP___ -1 17.6000 71.4000 TC 37 17.1374 70.8407 3 14 51
1927314N12068 1927 65 NI AS NOT_NAMED 1927-11-12 09:00:00 TS 17.7968 71.6916 main 134 63 _________PP___ -1 18.0148 71.9853 TC 33 17.5789 71.3980 3 14 53
1927314N12068 1927 65 NI AS NOT_NAMED 1927-11-12 12:00:00 TS 18.2030 72.2907 main 63 10 _________OP___ -1 18.4000 72.6000 TC 30 18.0060 71.9814 3 14 56
1927314N12068 1927 65 NI AS NOT_NAMED 1927-11-12 15:00:00 TS 18.5861 72.9138 main 10 0 _________PO___ -1 18.7722 73.2277 TC 30 18.4000 72.6000 1 14 59
1927314N12068 1927 65 NI AS NOT_NAMED 1927-11-12 18:00:00 TS 18.8985 73.5341 main 0 0 _________OP___ -1 19.1000 73.9000 TC 30 18.7474 73.2598 1 14 64
1927314N12068 1927 65 NI AS NOT_NAMED 1927-11-12 21:00:00 TS 19.1804 74.2249 main 0 0 _________PP___ -1 19.3682 74.6321 TC 30 19.0551 73.9534 1 14 68
1927314N12068 1927 65 NI AS NOT_NAMED 1927-11-13 00:00:00 TS 19.4235 74.9136 main 0 0 _________OP___ -1 19.6000 75.4000 TC 30 19.3353 74.6704 1 12 69
1927314N12068 1927 65 NI AS NOT_NAMED 1927-11-13 03:00:00 NR 19.6000 75.4000 main 0 __________O___ -1 TC 19.6000 75.4000 1 10 69

IBTrACS Databaseについて

本データベースは、米国NOAAが公開する1842年以降の世界の熱帯低気圧のベストトラックデータアーカイブInternational Best Track Archive for Climate Stewardship (IBTrACS)を、ウェブで閲覧しやすい形式に変換したものです。

最終更新日:2021-10-21